createdAt,value
2018-03-23T00:00:04.833Z,29.52
2018-03-23T00:02:32.364Z,31.45
2018-03-23T00:05:00.104Z,31.87
2018-03-23T00:07:27.761Z,29.83
2018-03-23T00:09:55.630Z,30.15
2018-03-23T00:12:23.184Z,30.40
2018-03-23T00:14:50.758Z,31.12
2018-03-23T00:17:18.265Z,32.22
2018-03-23T00:19:45.768Z,34.17
2018-03-23T00:22:13.309Z,32.83
2018-03-23T00:24:41.241Z,28.95
2018-03-23T00:27:08.805Z,32.17
2018-03-23T00:29:36.321Z,31.75
2018-03-23T00:32:03.816Z,33.05
2018-03-23T00:34:32.102Z,33.13
2018-03-23T00:37:00.518Z,32.58
2018-03-23T00:39:28.050Z,32.63
2018-03-23T00:41:56.326Z,32.97
2018-03-23T00:44:24.601Z,31.83
2018-03-23T00:46:53.291Z,31.42
2018-03-23T00:49:20.812Z,34.55
2018-03-23T00:51:48.545Z,34.50
2018-03-23T00:54:16.200Z,34.75
2018-03-23T00:56:43.695Z,32.63
2018-03-23T00:59:11.267Z,31.77
2018-03-23T01:01:38.764Z,35.40
2018-03-23T01:04:06.639Z,32.97
2018-03-23T01:06:34.262Z,34.10
2018-03-23T01:09:01.778Z,32.83
2018-03-23T01:11:29.269Z,33.38
2018-03-23T01:13:57.562Z,33.05
2018-03-23T01:16:25.224Z,32.90
2018-03-23T01:18:53.550Z,37.30
2018-03-23T01:21:21.254Z,35.10
2018-03-23T01:23:49.556Z,34.30
2018-03-23T01:26:17.103Z,35.35
2018-03-23T01:28:44.756Z,34.55
2018-03-23T01:31:13.033Z,34.80
2018-03-23T01:33:40.693Z,36.70
2018-03-23T01:36:08.255Z,37.33
2018-03-23T01:38:36.537Z,37.35
2018-03-23T01:41:04.912Z,36.65
2018-03-23T01:43:32.415Z,35.33
2018-03-23T01:45:59.917Z,31.85
2018-03-23T01:48:28.219Z,35.08
2018-03-23T01:50:55.713Z,36.60
2018-03-23T01:53:35.088Z,35.55
2018-03-23T01:56:03.371Z,34.25
2018-03-23T01:58:31.960Z,36.00
2018-03-23T02:00:59.593Z,35.38
2018-03-23T02:03:27.114Z,36.55
2018-03-23T02:05:54.646Z,38.08
2018-03-23T02:08:22.140Z,35.03
2018-03-23T02:10:49.670Z,38.78
2018-03-23T02:13:17.507Z,36.65
2018-03-23T02:15:45.776Z,36.65
2018-03-23T02:18:13.283Z,37.78
2018-03-23T02:20:41.530Z,39.25
2018-03-23T02:23:09.809Z,38.17
2018-03-23T02:25:37.796Z,42.80
2018-03-23T02:28:05.667Z,39.67
2018-03-23T02:30:33.187Z,37.42
2018-03-23T02:33:01.467Z,39.97
2018-03-23T02:35:29.780Z,40.12
2018-03-23T02:37:57.293Z,39.90
2018-03-23T02:40:24.922Z,41.30
2018-03-23T02:42:52.695Z,42.38
2018-03-23T02:45:20.195Z,42.08
2018-03-23T02:47:47.708Z,46.53
2018-03-23T02:50:15.209Z,44.05
2018-03-23T02:52:42.800Z,41.97
2018-03-23T02:55:10.326Z,47.62
2018-03-23T02:57:37.833Z,44.25
2018-03-23T03:00:06.183Z,45.25
2018-03-23T03:02:33.718Z,46.17
2018-03-23T03:05:02.018Z,45.47
2018-03-23T03:07:29.506Z,45.70
2018-03-23T03:09:57.059Z,43.75
2018-03-23T03:12:24.594Z,46.37
2018-03-23T03:14:52.297Z,50.38
2018-03-23T03:17:19.989Z,46.13
2018-03-23T03:19:47.590Z,54.40
2018-03-23T03:22:15.129Z,53.25
2018-03-23T03:24:43.006Z,47.92
2018-03-23T03:27:10.508Z,52.85
2018-03-23T03:29:38.000Z,50.47
2018-03-23T03:32:05.512Z,47.88
2018-03-23T03:34:33.040Z,53.08
2018-03-23T03:37:00.549Z,50.30
2018-03-23T03:39:28.064Z,54.33
2018-03-23T03:41:55.666Z,51.33
2018-03-23T03:44:23.364Z,58.20
2018-03-23T03:46:51.006Z,52.60
2018-03-23T03:49:18.660Z,52.95
2018-03-23T03:51:46.206Z,47.17
2018-03-23T03:54:13.719Z,56.97
2018-03-23T03:56:41.261Z,58.40
2018-03-23T03:59:08.776Z,51.65
2018-03-23T04:01:37.519Z,53.40
2018-03-23T04:04:05.055Z,51.65
2018-03-23T04:06:32.566Z,52.95
2018-03-23T04:09:00.196Z,52.83
2018-03-23T04:11:27.734Z,50.97
2018-03-23T04:13:55.279Z,52.58
2018-03-23T04:16:22.935Z,54.53
2018-03-23T04:18:51.236Z,53.65
2018-03-23T04:21:18.788Z,53.85
2018-03-23T04:23:46.440Z,50.85
2018-03-23T04:26:13.931Z,55.50
2018-03-23T04:28:41.587Z,55.05
2018-03-23T04:31:09.118Z,54.33
2018-03-23T04:33:37.116Z,57.33
2018-03-23T04:36:05.227Z,53.63
2018-03-23T04:38:33.489Z,54.95
2018-03-23T04:41:01.048Z,60.63
2018-03-23T04:43:28.755Z,56.53
2018-03-23T04:45:56.249Z,58.35
2018-03-23T04:48:25.288Z,62.03
2018-03-23T04:50:53.203Z,56.40
2018-03-23T04:53:20.714Z,56.95
2018-03-23T04:55:49.995Z,55.95
2018-03-23T04:58:17.728Z,58.75
2018-03-23T05:00:45.267Z,56.88
2018-03-23T05:03:12.932Z,58.13
2018-03-23T05:05:40.586Z,59.75
2018-03-23T05:08:08.113Z,55.78
2018-03-23T05:10:36.587Z,55.05
2018-03-23T05:13:04.205Z,55.90
2018-03-23T05:15:31.735Z,53.25
2018-03-23T05:17:59.989Z,53.33
2018-03-23T05:20:28.291Z,56.28
2018-03-23T05:22:56.558Z,54.83
2018-03-23T05:25:24.056Z,55.22
2018-03-23T05:27:51.741Z,50.17
2018-03-23T05:30:19.237Z,52.25
2018-03-23T05:32:46.804Z,54.53
2018-03-23T05:35:14.469Z,52.28
2018-03-23T05:37:42.150Z,57.30
2018-03-23T05:40:11.463Z,54.47
2018-03-23T05:42:38.984Z,49.97
2018-03-23T05:45:07.388Z,48.53
2018-03-23T05:47:34.940Z,51.20
2018-03-23T05:50:02.457Z,52.05
2018-03-23T05:52:30.754Z,48.90
2018-03-23T05:54:58.452Z,48.55
2018-03-23T05:57:25.978Z,50.03
2018-03-23T05:59:53.810Z,49.03
2018-03-23T06:02:21.294Z,49.05
2018-03-23T06:04:48.786Z,50.08
2018-03-23T06:07:16.329Z,48.33
2018-03-23T06:09:43.905Z,47.15
2018-03-23T06:12:11.390Z,45.58
2018-03-23T06:14:38.949Z,50.05
2018-03-23T06:17:06.869Z,41.70
2018-03-23T06:19:34.381Z,44.72
2018-03-23T06:22:01.892Z,41.40
2018-03-23T06:24:29.430Z,45.17
2018-03-23T06:26:56.999Z,45.45
2018-03-23T06:29:24.516Z,42.75
2018-03-23T06:31:52.148Z,46.10
2018-03-23T06:34:19.753Z,41.20
2018-03-23T06:36:48.165Z,44.67
2018-03-23T06:39:15.712Z,43.38
2018-03-23T06:41:44.120Z,43.50
2018-03-23T06:44:11.619Z,44.95
2018-03-23T06:46:39.134Z,42.38
2018-03-23T06:49:06.637Z,42.20
2018-03-23T06:51:35.041Z,45.90
2018-03-23T06:54:03.334Z,46.28
2018-03-23T06:56:30.870Z,46.42
2018-03-23T06:58:58.378Z,42.25
2018-03-23T07:01:26.132Z,41.47
2018-03-23T07:03:53.680Z,44.55
2018-03-23T07:06:21.216Z,42.50
2018-03-23T07:08:49.482Z,43.65
2018-03-23T07:11:17.899Z,42.78
2018-03-23T07:13:45.438Z,43.67
2018-03-23T07:16:12.917Z,42.67
2018-03-23T07:18:40.710Z,44.55
2018-03-23T07:21:08.281Z,40.80
2018-03-23T07:23:35.844Z,45.17
2018-03-23T07:26:03.360Z,43.83
2018-03-23T07:28:30.905Z,40.83
2018-03-23T07:30:58.566Z,39.55
2018-03-23T07:33:26.327Z,40.85
2018-03-23T07:35:54.117Z,40.60
2018-03-23T07:38:21.770Z,43.17
2018-03-23T07:40:49.450Z,42.72
2018-03-23T07:43:17.094Z,43.08
2018-03-23T07:45:44.638Z,38.50
2018-03-23T07:48:12.173Z,38.20
2018-03-23T07:50:40.477Z,42.38
2018-03-23T07:53:08.035Z,39.95
2018-03-23T07:55:35.577Z,38.50
2018-03-23T07:58:03.098Z,35.05
2018-03-23T08:00:30.671Z,38.90
2018-03-23T08:02:59.210Z,38.58
2018-03-23T08:05:26.712Z,34.10
2018-03-23T08:07:55.130Z,37.00
2018-03-23T08:10:22.699Z,36.80
2018-03-23T08:12:50.236Z,40.25
2018-03-23T08:15:17.891Z,38.13
2018-03-23T08:17:45.426Z,36.70
2018-03-23T08:20:13.742Z,38.83
2018-03-23T08:22:41.260Z,40.80
2018-03-23T08:25:09.568Z,42.58
2018-03-23T08:27:37.122Z,38.88
2018-03-23T08:30:04.689Z,38.85
2018-03-23T08:32:32.220Z,41.55
2018-03-23T08:35:00.527Z,46.03
2018-03-23T08:37:28.105Z,44.50
2018-03-23T08:39:55.749Z,43.33
2018-03-23T08:42:23.285Z,42.63
2018-03-23T08:44:50.961Z,39.47
2018-03-23T08:47:18.843Z,41.40
2018-03-23T08:49:46.367Z,37.65
2018-03-23T08:52:14.052Z,40.47
2018-03-23T08:54:42.269Z,43.47
2018-03-23T08:57:09.836Z,43.40
2018-03-23T08:59:37.376Z,39.90
2018-03-23T09:02:04.949Z,40.27
2018-03-23T09:04:32.579Z,39.80
2018-03-23T09:07:00.119Z,40.07
2018-03-23T09:09:27.678Z,38.97
2018-03-23T09:11:55.959Z,40.33
2018-03-23T09:14:23.830Z,40.73
2018-03-23T09:16:51.341Z,40.00
2018-03-23T09:19:18.903Z,39.67
2018-03-23T09:21:46.564Z,39.73
2018-03-23T09:24:14.111Z,42.27
2018-03-23T09:26:42.326Z,39.00
2018-03-23T09:29:11.293Z,37.73
2018-03-23T09:31:39.625Z,37.77
2018-03-23T09:34:07.169Z,38.80
2018-03-23T09:36:34.681Z,40.00
2018-03-23T09:39:02.193Z,49.20
2018-03-23T09:41:30.579Z,48.47
2018-03-23T09:43:58.110Z,111.77
2018-03-23T09:46:26.521Z,78.33
2018-03-23T09:48:54.045Z,60.00
2018-03-23T09:51:21.591Z,44.70
2018-03-23T09:53:50.135Z,94.90
2018-03-23T09:56:30.562Z,121.57
2018-03-23T09:58:58.895Z,39.63
2018-03-23T10:01:27.889Z,45.07
2018-03-23T10:03:55.773Z,73.40
2018-03-23T10:06:23.702Z,41.97
2018-03-23T10:08:51.186Z,36.93
2018-03-23T10:11:18.865Z,38.50
2018-03-23T10:13:46.410Z,37.00
2018-03-23T10:16:14.087Z,47.47
2018-03-23T10:18:41.646Z,38.33
2018-03-23T10:21:09.173Z,35.77
2018-03-23T10:23:36.939Z,37.90
2018-03-23T10:26:04.721Z,35.93
2018-03-23T10:28:32.466Z,34.97
2018-03-23T10:30:59.974Z,32.83
2018-03-23T10:33:34.351Z,33.87
2018-03-23T10:36:03.851Z,34.97
2018-03-23T10:38:31.780Z,36.80
2018-03-23T10:40:59.360Z,30.17
2018-03-23T10:43:27.098Z,34.33
2018-03-23T10:45:54.663Z,32.40
2018-03-23T10:48:23.300Z,30.80
2018-03-23T10:50:50.841Z,32.93
2018-03-23T10:53:18.504Z,33.43
2018-03-23T10:55:46.141Z,31.93
2018-03-23T10:58:14.043Z,32.33
2018-03-23T11:00:47.338Z,32.43
2018-03-23T11:03:14.953Z,31.97
2018-03-23T11:05:42.514Z,29.20
2018-03-23T11:08:10.258Z,30.50
2018-03-23T11:10:38.942Z,31.90
2018-03-23T11:13:07.713Z,29.97
2018-03-23T11:15:35.243Z,32.40
2018-03-23T11:18:03.179Z,31.77
2018-03-23T11:20:30.743Z,31.17
2018-03-23T11:22:58.572Z,33.40
2018-03-23T11:25:26.964Z,28.17
2018-03-23T11:27:54.528Z,29.80
2018-03-23T11:30:22.038Z,28.93
2018-03-23T11:32:49.645Z,27.10
2018-03-23T11:35:17.143Z,26.80
2018-03-23T11:37:44.689Z,28.30
2018-03-23T11:40:12.284Z,28.37
2018-03-23T11:42:39.875Z,25.97
2018-03-23T11:45:07.444Z,29.30
2018-03-23T11:47:35.732Z,27.60
2018-03-23T11:50:03.722Z,26.97
2018-03-23T11:52:31.794Z,28.63
2018-03-23T11:54:59.358Z,27.80
2018-03-23T11:57:27.108Z,43.50
2018-03-23T11:59:54.837Z,51.33
2018-03-23T12:02:23.036Z,31.67
2018-03-23T12:04:50.990Z,28.33
2018-03-23T12:07:18.521Z,28.13
2018-03-23T12:09:46.530Z,33.90
2018-03-23T12:12:14.562Z,29.03
2018-03-23T12:14:42.128Z,27.43
2018-03-23T12:17:10.843Z,29.23
2018-03-23T12:19:38.426Z,28.80
2018-03-23T12:22:06.843Z,35.17
2018-03-23T12:24:34.423Z,29.53
2018-03-23T12:27:02.742Z,29.47
2018-03-23T12:29:30.254Z,26.80
2018-03-23T12:31:58.768Z,26.50
2018-03-23T12:34:26.375Z,24.40
2018-03-23T12:36:54.020Z,25.40
2018-03-23T12:39:21.551Z,25.20
2018-03-23T12:41:49.111Z,22.10
2018-03-23T12:44:16.688Z,22.73
2018-03-23T12:46:44.240Z,19.73
2018-03-23T12:49:11.743Z,19.93
2018-03-23T12:51:39.269Z,19.67
2018-03-23T12:54:07.834Z,18.90
2018-03-23T12:56:36.194Z,19.30
2018-03-23T12:59:03.766Z,17.27
2018-03-23T13:01:31.426Z,17.10
2018-03-23T13:03:59.955Z,20.77
2018-03-23T13:06:27.489Z,20.87
2018-03-23T13:08:55.407Z,20.30
2018-03-23T13:11:22.927Z,19.80
2018-03-23T13:13:50.469Z,20.63
2018-03-23T13:16:17.996Z,21.00
2018-03-23T13:18:45.881Z,22.60
2018-03-23T13:21:13.408Z,22.67
2018-03-23T13:23:41.646Z,21.87
2018-03-23T13:26:09.653Z,24.03
2018-03-23T13:28:38.199Z,23.57
2018-03-23T13:31:19.870Z,20.97
2018-03-23T13:33:48.556Z,22.60
2018-03-23T13:36:16.198Z,23.43
2018-03-23T13:38:43.878Z,23.73
2018-03-23T13:41:13.598Z,24.87
2018-03-23T13:43:42.299Z,22.63
2018-03-23T13:46:10.643Z,26.47
2018-03-23T13:48:38.976Z,25.03
2018-03-23T13:51:06.580Z,23.27
2018-03-23T13:53:34.271Z,22.80
2018-03-23T13:56:01.913Z,21.07
2018-03-23T13:58:35.007Z,23.90
2018-03-23T14:01:02.590Z,22.00
2018-03-23T14:03:30.148Z,21.87
2018-03-23T14:05:57.678Z,22.37
2018-03-23T14:08:25.721Z,20.73
2018-03-23T14:10:53.308Z,23.70
2018-03-23T14:13:20.870Z,21.27
2018-03-23T14:15:48.643Z,20.13
2018-03-23T14:18:16.598Z,20.00
2018-03-23T14:20:44.176Z,18.03
2018-03-23T14:23:12.215Z,18.07
2018-03-23T14:25:40.872Z,20.00
2018-03-23T14:28:09.252Z,19.23
2018-03-23T14:30:36.811Z,19.87
2018-03-23T14:33:04.430Z,19.30
2018-03-23T14:35:31.959Z,21.63
2018-03-23T14:37:59.485Z,19.30
2018-03-23T14:40:29.729Z,20.93
2018-03-23T14:42:58.052Z,18.10
2018-03-23T14:45:25.718Z,19.23
2018-03-23T14:47:53.480Z,20.53
2018-03-23T14:50:24.057Z,22.47
2018-03-23T14:52:51.647Z,19.20
2018-03-23T14:55:19.197Z,21.80
2018-03-23T14:57:46.757Z,22.50
2018-03-23T15:00:14.278Z,21.00
2018-03-23T15:02:41.806Z,22.43
2018-03-23T15:05:09.415Z,18.37
2018-03-23T15:07:37.102Z,23.60
2018-03-23T15:10:04.623Z,27.77
2018-03-23T15:12:32.127Z,54.43
2018-03-23T15:15:00.571Z,34.27
2018-03-23T15:17:28.111Z,27.30
2018-03-23T15:19:56.412Z,24.57
2018-03-23T15:22:24.079Z,21.73
2018-03-23T15:24:52.357Z,21.73
2018-03-23T15:27:20.799Z,22.03
2018-03-23T15:29:48.422Z,22.73
2018-03-23T15:32:15.952Z,22.23
2018-03-23T15:34:43.458Z,25.07
2018-03-23T15:37:10.944Z,22.03
2018-03-23T15:39:38.470Z,24.27
2018-03-23T15:42:06.007Z,21.70
2018-03-23T15:44:33.510Z,20.73
2018-03-23T15:47:01.051Z,19.60
2018-03-23T15:49:28.557Z,20.73
2018-03-23T15:51:56.833Z,21.33
2018-03-23T15:54:24.584Z,20.57
2018-03-23T15:56:52.113Z,24.63
2018-03-23T15:59:19.622Z,27.60
2018-03-23T16:01:47.410Z,25.37
2018-03-23T16:04:14.905Z,26.43
2018-03-23T16:06:42.614Z,31.30
2018-03-23T16:09:10.168Z,29.90
2018-03-23T16:11:38.630Z,29.47
2018-03-23T16:17:06.098Z,26.73
2018-03-23T16:19:33.626Z,26.53
2018-03-23T16:22:01.129Z,30.83
2018-03-23T16:24:28.858Z,27.93
2018-03-23T16:26:56.374Z,28.07
2018-03-23T16:29:23.908Z,24.30
2018-03-23T16:31:51.645Z,27.97
2018-03-23T16:34:19.148Z,32.20
2018-03-23T16:36:46.638Z,26.70
2018-03-23T16:39:14.206Z,30.77
2018-03-23T16:41:41.784Z,28.37
2018-03-23T16:44:09.443Z,26.27
2018-03-23T16:46:37.356Z,28.57
2018-03-23T16:49:05.610Z,30.90
2018-03-23T16:51:33.140Z,31.50
2018-03-23T16:54:00.655Z,29.47
2018-03-23T16:56:28.272Z,27.80
2018-03-23T16:58:56.107Z,28.07
2018-03-23T17:01:23.674Z,28.20
2018-03-23T17:03:51.267Z,26.27
2018-03-23T17:06:18.796Z,32.07
2018-03-23T17:08:46.287Z,27.63
2018-03-23T17:11:13.812Z,30.97
2018-03-23T17:13:41.457Z,28.10
2018-03-23T17:16:09.020Z,28.67
2018-03-23T17:18:36.536Z,26.63
2018-03-23T17:21:04.151Z,24.93
2018-03-23T17:23:31.823Z,27.53
2018-03-23T17:25:59.482Z,28.87
2018-03-23T17:28:27.008Z,28.60
2018-03-23T17:30:55.334Z,27.43
2018-03-23T17:33:22.907Z,30.93
2018-03-23T17:35:51.150Z,26.03
2018-03-23T17:38:18.697Z,27.00
2018-03-23T17:40:46.403Z,27.60
2018-03-23T17:43:13.991Z,26.77
2018-03-23T17:45:41.488Z,25.97
2018-03-23T17:48:09.114Z,29.43
2018-03-23T17:50:36.807Z,29.67
2018-03-23T17:53:04.458Z,29.90
2018-03-23T17:55:32.049Z,30.20
2018-03-23T17:57:59.650Z,26.00
2018-03-23T18:00:28.313Z,28.80
2018-03-23T18:02:56.130Z,29.40
2018-03-23T18:05:24.302Z,29.83
2018-03-23T18:07:51.799Z,37.67
2018-03-23T18:10:19.347Z,36.43
2018-03-23T18:12:46.882Z,33.70
2018-03-23T18:15:14.466Z,37.58
2018-03-23T18:17:41.996Z,38.60
2018-03-23T18:20:09.526Z,38.03
2018-03-23T18:22:37.131Z,40.00
2018-03-23T18:25:04.621Z,40.27
2018-03-23T18:27:32.176Z,42.20
2018-03-23T18:29:59.683Z,36.63
2018-03-23T18:32:27.246Z,36.07
2018-03-23T18:34:54.967Z,34.10
2018-03-23T18:37:22.497Z,35.73
2018-03-23T18:39:50.224Z,33.13
2018-03-23T18:42:18.519Z,36.23
2018-03-23T18:44:46.053Z,45.03
2018-03-23T18:47:14.439Z,41.10
2018-03-23T18:49:42.746Z,35.17
2018-03-23T18:52:10.299Z,38.37
2018-03-23T18:54:37.797Z,37.13
2018-03-23T18:57:05.333Z,37.13
2018-03-23T18:59:33.641Z,34.87
2018-03-23T19:02:01.138Z,37.03
2018-03-23T19:04:28.642Z,38.97
2018-03-23T19:06:56.199Z,37.33
2018-03-23T19:09:23.693Z,38.70
2018-03-23T19:11:51.400Z,37.23
2018-03-23T19:14:19.053Z,36.03
2018-03-23T19:16:46.569Z,39.47
2018-03-23T19:19:14.813Z,37.57
2018-03-23T19:21:42.445Z,39.17
2018-03-23T19:24:09.933Z,38.10
2018-03-23T19:26:37.495Z,40.97
2018-03-23T19:29:05.228Z,42.43
2018-03-23T19:31:32.790Z,41.10
2018-03-23T19:34:00.372Z,37.85
2018-03-23T19:36:27.891Z,41.37
2018-03-23T19:38:55.422Z,44.70
2018-03-23T19:41:22.961Z,43.22
2018-03-23T19:43:50.481Z,41.80
2018-03-23T19:46:18.018Z,41.33
2018-03-23T19:48:45.656Z,43.63
2018-03-23T19:51:13.960Z,41.08
2018-03-23T19:53:41.535Z,41.97
2018-03-23T19:56:09.191Z,43.60
2018-03-23T19:58:37.341Z,40.50
2018-03-23T20:01:04.997Z,42.10
2018-03-23T20:03:32.437Z,40.17
2018-03-23T20:06:00.144Z,41.40
2018-03-23T20:08:27.729Z,40.22
